createdAt,value
2024-01-11T00:00:39.638Z,55.38
2024-01-11T00:02:21.044Z,55.23
2024-01-11T00:04:02.407Z,55.08
2024-01-11T00:05:43.910Z,54.09
2024-01-11T00:07:25.321Z,52.97
2024-01-11T00:09:06.686Z,52.13
2024-01-11T00:10:48.021Z,52.80
2024-01-11T00:12:29.395Z,52.83
2024-01-11T00:14:10.775Z,53.50
2024-01-11T00:15:52.187Z,53.50
2024-01-11T00:17:33.688Z,52.77
2024-01-11T00:19:15.238Z,52.64
2024-01-11T00:20:56.651Z,51.59
2024-01-11T00:22:37.997Z,50.48
2024-01-11T00:24:19.342Z,50.00
2024-01-11T00:26:00.938Z,50.73
2024-01-11T00:27:42.341Z,50.67
2024-01-11T00:29:23.735Z,51.51
2024-01-11T00:31:05.165Z,52.06
2024-01-11T00:32:46.715Z,51.79
2024-01-11T00:34:28.156Z,51.15
2024-01-11T00:36:09.669Z,50.82
2024-01-11T00:37:51.475Z,53.27
2024-01-11T00:39:32.899Z,53.37
2024-01-11T00:41:14.858Z,51.14
2024-01-11T00:42:56.218Z,50.58
2024-01-11T00:44:37.670Z,49.74
2024-01-11T00:46:19.065Z,49.47
2024-01-11T00:48:00.544Z,49.45
2024-01-11T00:49:42.119Z,52.90
2024-01-11T00:51:23.485Z,54.66
2024-01-11T00:53:04.893Z,53.24
2024-01-11T00:54:46.263Z,52.26
2024-01-11T00:56:27.623Z,51.45
2024-01-11T00:58:09.039Z,50.94
2024-01-11T00:59:50.452Z,50.79
2024-01-11T01:01:31.817Z,52.40
2024-01-11T01:03:13.186Z,53.79
2024-01-11T01:04:54.580Z,54.64
2024-01-11T01:06:36.050Z,53.37
2024-01-11T01:08:17.509Z,52.36
2024-01-11T01:09:58.871Z,52.05
2024-01-11T01:11:40.248Z,52.39
2024-01-11T01:13:21.618Z,55.42
2024-01-11T01:15:03.014Z,55.68
2024-01-11T01:16:44.376Z,55.00
2024-01-11T01:18:25.802Z,54.90
2024-01-11T01:20:07.241Z,54.41
2024-01-11T01:21:48.624Z,54.49
2024-01-11T01:23:30.029Z,54.53
2024-01-11T01:25:11.505Z,53.80
2024-01-11T01:26:52.935Z,54.07
2024-01-11T01:28:34.308Z,54.33
2024-01-11T01:30:16.403Z,54.24
2024-01-11T01:31:58.029Z,55.10
2024-01-11T01:33:39.561Z,56.65
2024-01-11T01:35:21.017Z,56.56
2024-01-11T01:37:02.398Z,56.35
2024-01-11T01:38:43.878Z,55.91
2024-01-11T01:40:25.288Z,56.16
2024-01-11T01:42:06.632Z,56.14
2024-01-11T01:43:47.981Z,55.57
2024-01-11T01:45:29.415Z,55.75
2024-01-11T01:47:10.799Z,54.92
2024-01-11T01:48:52.265Z,54.47
2024-01-11T01:50:33.762Z,53.94
2024-01-11T01:52:15.164Z,53.78
2024-01-11T01:53:56.523Z,54.69
2024-01-11T01:55:37.941Z,55.19
2024-01-11T01:57:19.314Z,53.83
2024-01-11T01:59:00.659Z,53.84
2024-01-11T02:00:42.096Z,53.87
2024-01-11T02:02:23.510Z,53.11
2024-01-11T02:04:04.904Z,53.77
2024-01-11T02:05:46.461Z,54.24
2024-01-11T02:07:27.867Z,53.81
2024-01-11T02:09:09.224Z,53.72
2024-01-11T02:10:50.604Z,52.66
2024-01-11T02:12:31.945Z,54.09
2024-01-11T02:14:13.334Z,53.14
2024-01-11T02:15:54.722Z,51.86
2024-01-11T02:17:36.213Z,51.87
2024-01-11T02:19:17.641Z,52.26
2024-01-11T02:20:59.070Z,55.23
2024-01-11T02:22:40.457Z,53.37
2024-01-11T02:24:21.849Z,51.91
2024-01-11T02:26:03.276Z,52.83
2024-01-11T02:27:44.696Z,54.21
2024-01-11T02:29:26.063Z,54.41
2024-01-11T02:31:07.660Z,54.56
2024-01-11T02:32:49.205Z,52.72
2024-01-11T02:34:30.858Z,52.82
2024-01-11T02:36:12.388Z,51.28
2024-01-11T02:37:53.817Z,51.33
2024-01-11T02:39:35.224Z,49.41
2024-01-11T02:41:16.630Z,49.01
2024-01-11T02:42:58.034Z,48.48
2024-01-11T02:44:39.507Z,48.03
2024-01-11T02:46:20.852Z,49.75
2024-01-11T02:48:02.381Z,51.48
2024-01-11T02:49:43.794Z,51.87
2024-01-11T02:51:25.182Z,52.65
2024-01-11T02:53:06.606Z,53.12
2024-01-11T02:54:48.114Z,52.13
2024-01-11T02:56:29.550Z,51.41
2024-01-11T02:58:10.924Z,51.69
2024-01-11T02:59:52.316Z,49.67
2024-01-11T03:01:33.704Z,49.02
2024-01-11T03:03:15.141Z,50.35
2024-01-11T03:04:56.577Z,50.54
2024-01-11T03:06:38.204Z,50.11
2024-01-11T03:08:19.730Z,51.54
2024-01-11T03:10:01.130Z,50.93
2024-01-11T03:11:42.591Z,50.28
2024-01-11T03:13:24.003Z,49.61
2024-01-11T03:15:05.353Z,49.49
2024-01-11T03:16:46.743Z,48.74
2024-01-11T03:18:28.250Z,47.88
2024-01-11T03:20:09.759Z,46.88
2024-01-11T03:21:51.191Z,47.05
2024-01-11T03:23:32.643Z,46.51
2024-01-11T03:25:14.067Z,46.37
2024-01-11T03:26:55.457Z,47.74
2024-01-11T03:28:36.815Z,47.83
2024-01-11T03:30:18.313Z,47.22
2024-01-11T03:31:59.745Z,47.25
2024-01-11T03:33:41.222Z,47.06
2024-01-11T03:35:22.661Z,47.20
2024-01-11T03:37:04.039Z,47.24
2024-01-11T03:38:47.148Z,47.99
2024-01-11T03:40:29.680Z,48.89
2024-01-11T03:42:11.057Z,51.18
2024-01-11T03:43:52.395Z,51.31
2024-01-11T03:45:33.746Z,50.60
2024-01-11T03:47:15.157Z,50.60
2024-01-11T03:48:56.741Z,51.92
2024-01-11T03:50:38.262Z,51.84
2024-01-11T03:52:19.748Z,52.13
2024-01-11T03:54:01.094Z,52.90
2024-01-11T03:55:42.466Z,53.19
2024-01-11T03:57:23.851Z,52.37
2024-01-11T03:59:05.241Z,52.34
2024-01-11T04:00:46.715Z,52.23
2024-01-11T04:02:28.152Z,52.60
2024-01-11T04:04:09.597Z,53.53
2024-01-11T04:05:51.151Z,53.41
2024-01-11T04:07:32.582Z,53.43
2024-01-11T04:09:13.944Z,53.27
2024-01-11T04:10:55.419Z,52.57
2024-01-11T04:12:56.800Z,53.32
2024-01-11T04:14:58.139Z,52.47
2024-01-11T04:16:39.503Z,51.92
2024-01-11T04:18:20.972Z,51.88
2024-01-11T04:20:02.578Z,50.10
2024-01-11T04:21:43.994Z,50.57
2024-01-11T04:23:25.431Z,50.47
2024-01-11T04:25:06.817Z,49.64
2024-01-11T04:26:48.251Z,48.28
2024-01-11T04:28:29.618Z,47.79
2024-01-11T04:30:10.987Z,47.80
2024-01-11T04:31:52.418Z,47.66
2024-01-11T04:33:33.857Z,47.81
2024-01-11T04:35:15.299Z,48.99
2024-01-11T04:36:56.714Z,49.62
2024-01-11T04:38:38.140Z,49.50
2024-01-11T04:40:19.543Z,49.35
2024-01-11T04:42:01.522Z,49.76
2024-01-11T04:43:42.897Z,49.86
2024-01-11T04:45:24.269Z,50.07
2024-01-11T04:47:05.754Z,49.25
2024-01-11T04:48:47.302Z,50.04
2024-01-11T04:50:31.506Z,51.21
2024-01-11T04:52:12.899Z,52.42
2024-01-11T04:53:54.269Z,51.18
2024-01-11T04:55:35.634Z,50.77
2024-01-11T04:57:17.088Z,52.95
2024-01-11T04:58:58.468Z,52.51
2024-01-11T05:00:39.860Z,52.11
2024-01-11T05:02:21.333Z,51.55
2024-01-11T05:04:02.843Z,51.68
2024-01-11T05:05:44.401Z,51.51
2024-01-11T05:07:25.817Z,51.83
2024-01-11T05:09:07.207Z,54.47
2024-01-11T05:10:48.620Z,52.95
2024-01-11T05:12:29.986Z,51.06
2024-01-11T05:14:11.397Z,51.36
2024-01-11T05:15:52.808Z,51.37
2024-01-11T05:17:34.235Z,50.62
2024-01-11T05:19:15.744Z,50.45
2024-01-11T05:20:57.152Z,50.22
2024-01-11T05:22:38.515Z,50.20
2024-01-11T05:24:19.903Z,49.30
2024-01-11T05:26:01.417Z,48.54
2024-01-11T05:27:42.765Z,49.72
2024-01-11T05:29:24.119Z,49.58
2024-01-11T05:31:05.589Z,49.44
2024-01-11T05:32:47.074Z,49.02
2024-01-11T05:34:28.774Z,48.78
2024-01-11T05:36:10.180Z,48.17
2024-01-11T05:37:51.515Z,47.48
2024-01-11T05:39:32.931Z,48.75
2024-01-11T05:41:14.398Z,49.49
2024-01-11T05:42:55.791Z,49.80
2024-01-11T05:44:37.309Z,50.97
2024-01-11T05:46:18.727Z,52.23
2024-01-11T05:48:00.141Z,53.07
2024-01-11T05:49:41.603Z,52.51
2024-01-11T05:51:23.108Z,51.40
2024-01-11T05:53:04.487Z,51.33
2024-01-11T05:54:45.851Z,50.64
2024-01-11T05:56:27.288Z,50.84
2024-01-11T05:58:08.662Z,50.44
2024-01-11T05:59:50.024Z,49.32
2024-01-11T06:01:31.411Z,49.89
2024-01-11T06:03:12.759Z,51.06
2024-01-11T06:04:54.146Z,51.97
2024-01-11T06:06:35.569Z,52.28
2024-01-11T06:08:16.972Z,52.51
2024-01-11T06:09:58.355Z,54.83
2024-01-11T06:11:39.836Z,54.18
2024-01-11T06:13:21.238Z,52.78
2024-01-11T06:15:02.566Z,53.10
2024-01-11T06:16:43.927Z,53.11
2024-01-11T06:18:25.347Z,53.24
2024-01-11T06:20:06.808Z,55.49
2024-01-11T06:21:48.316Z,56.37
2024-01-11T06:23:29.742Z,54.12
2024-01-11T06:25:11.119Z,52.64
2024-01-11T06:26:52.481Z,54.19
2024-01-11T06:28:36.129Z,54.07
2024-01-11T06:30:17.970Z,54.65
2024-01-11T06:31:59.451Z,53.99
2024-01-11T06:33:40.865Z,53.83
2024-01-11T06:35:22.264Z,54.58
2024-01-11T06:37:03.648Z,52.54
2024-01-11T06:38:45.130Z,51.80
2024-01-11T06:40:26.490Z,51.55
2024-01-11T06:42:07.875Z,51.48
2024-01-11T06:43:49.200Z,53.67
2024-01-11T06:45:30.556Z,54.04
2024-01-11T06:47:11.949Z,53.91
2024-01-11T06:48:53.660Z,51.33
2024-01-11T06:50:35.174Z,53.06
2024-01-11T06:52:16.569Z,52.53
2024-01-11T06:53:57.898Z,53.21
2024-01-11T06:55:39.471Z,54.69
2024-01-11T06:57:20.957Z,54.00
2024-01-11T06:59:02.367Z,53.71
2024-01-11T07:00:43.772Z,53.03
2024-01-11T07:02:25.340Z,52.81
2024-01-11T07:04:06.761Z,52.76
2024-01-11T07:05:48.459Z,51.90
2024-01-11T07:07:29.958Z,54.39
2024-01-11T07:09:11.337Z,52.85
2024-01-11T07:10:52.713Z,52.45
2024-01-11T07:12:34.109Z,52.82
2024-01-11T07:14:15.478Z,53.07
2024-01-11T07:15:56.860Z,53.93
2024-01-11T07:17:38.332Z,53.52
2024-01-11T07:19:19.821Z,51.93
2024-01-11T07:21:01.236Z,52.87
2024-01-11T07:22:42.905Z,53.20
2024-01-11T07:24:24.306Z,51.72
2024-01-11T07:26:05.708Z,51.10
2024-01-11T07:27:47.043Z,49.89
2024-01-11T07:29:28.465Z,49.47
2024-01-11T07:31:09.893Z,49.39
2024-01-11T07:32:51.386Z,49.27
2024-01-11T07:34:32.893Z,49.58
2024-01-11T07:36:14.325Z,50.14
2024-01-11T07:37:55.761Z,48.96
2024-01-11T07:39:37.133Z,47.71
2024-01-11T07:41:18.518Z,46.54
2024-01-11T07:42:59.859Z,47.07
2024-01-11T07:44:41.254Z,47.41
2024-01-11T07:46:32.437Z,47.79
2024-01-11T07:48:17.973Z,48.61
2024-01-11T07:49:59.499Z,49.47
2024-01-11T07:51:40.907Z,50.69
2024-01-11T07:53:22.311Z,51.00
2024-01-11T07:55:03.764Z,50.09
2024-01-11T07:56:45.175Z,50.23
2024-01-11T07:58:26.555Z,49.60
2024-01-11T08:00:08.003Z,48.43
2024-01-11T08:01:49.450Z,48.10
2024-01-11T08:03:30.822Z,47.92
2024-01-11T08:05:12.392Z,50.08
2024-01-11T08:06:53.888Z,50.29
2024-01-11T08:08:35.349Z,51.27
2024-01-11T08:10:16.743Z,51.22
2024-01-11T08:11:58.191Z,52.39
2024-01-11T08:13:39.583Z,52.48
2024-01-11T08:15:20.947Z,51.26
2024-01-11T08:17:02.358Z,49.58
2024-01-11T08:18:43.733Z,48.66
2024-01-11T08:20:25.127Z,49.43
2024-01-11T08:22:06.537Z,48.90
2024-01-11T08:23:47.937Z,48.23
2024-01-11T08:25:29.337Z,48.55
2024-01-11T08:27:10.738Z,48.31
2024-01-11T08:28:52.089Z,48.79
2024-01-11T08:30:33.466Z,46.96
2024-01-11T08:32:24.105Z,46.88
2024-01-11T08:34:12.793Z,46.32
2024-01-11T08:35:54.311Z,45.93
2024-01-11T08:37:35.671Z,46.05
2024-01-11T08:39:17.032Z,47.40
2024-01-11T08:40:58.401Z,47.72
2024-01-11T08:42:39.752Z,47.25
2024-01-11T08:44:21.117Z,47.14
2024-01-11T08:46:02.543Z,46.36
2024-01-11T08:47:44.099Z,48.83
2024-01-11T08:49:25.561Z,48.14
2024-01-11T08:51:07.054Z,47.38
2024-01-11T08:52:49.471Z,46.42
2024-01-11T08:54:30.815Z,45.42
2024-01-11T08:56:12.186Z,44.13
2024-01-11T08:57:53.597Z,43.54
2024-01-11T08:59:35.653Z,45.64
2024-01-11T09:01:17.253Z,46.81
2024-01-11T09:02:59.222Z,45.42
2024-01-11T09:04:40.777Z,45.13
2024-01-11T09:06:22.482Z,45.35
2024-01-11T09:08:03.939Z,44.96
2024-01-11T09:09:51.276Z,43.39
2024-01-11T09:11:38.228Z,43.89
2024-01-11T09:13:19.626Z,44.68
2024-01-11T09:15:00.991Z,42.63
2024-01-11T09:16:42.373Z,42.17
2024-01-11T09:18:23.819Z,42.33
2024-01-11T09:20:05.284Z,41.79
2024-01-11T09:21:46.728Z,42.11
2024-01-11T09:23:28.153Z,42.79
2024-01-11T09:25:09.642Z,43.03
2024-01-11T09:26:51.144Z,43.30
2024-01-11T09:28:32.504Z,42.73
2024-01-11T09:30:14.453Z,42.89
2024-01-11T09:31:56.279Z,42.11
2024-01-11T09:33:37.776Z,41.62
2024-01-11T09:35:19.379Z,41.39
2024-01-11T09:37:00.903Z,41.59
2024-01-11T09:38:42.397Z,41.36
2024-01-11T09:40:23.778Z,39.42
2024-01-11T09:42:05.160Z,37.81
2024-01-11T09:43:47.451Z,35.98
2024-01-11T09:45:28.946Z,33.48
2024-01-11T09:47:11.662Z,33.32
2024-01-11T09:48:55.603Z,33.52
2024-01-11T09:50:37.185Z,33.70
2024-01-11T09:52:18.757Z,31.92
2024-01-11T09:54:00.178Z,29.24
2024-01-11T09:55:41.604Z,29.65
2024-01-11T09:57:23.030Z,28.57
2024-01-11T09:59:04.571Z,29.75
2024-01-11T10:00:46.198Z,27.50
2024-01-11T10:02:27.666Z,28.10
2024-01-11T10:04:09.511Z,28.06
2024-01-11T10:05:51.096Z,27.90
2024-01-11T10:07:32.672Z,28.23
2024-01-11T10:09:14.016Z,27.52
2024-01-11T10:10:55.357Z,28.10
2024-01-11T10:12:36.830Z,28.28
2024-01-11T10:14:18.970Z,26.95
2024-01-11T10:16:00.463Z,28.14
2024-01-11T10:17:42.080Z,26.58
2024-01-11T10:19:23.749Z,26.95
2024-01-11T10:21:05.344Z,25.19
2024-01-11T10:22:46.762Z,23.64
2024-01-11T10:24:28.108Z,22.75
2024-01-11T10:26:09.599Z,24.53
2024-01-11T10:27:50.996Z,24.20
2024-01-11T10:29:32.398Z,25.29
2024-01-11T10:31:13.810Z,24.98
2024-01-11T10:32:55.236Z,24.67
2024-01-11T10:34:36.633Z,23.98
2024-01-11T10:36:18.228Z,22.15
2024-01-11T10:37:59.754Z,22.57
2024-01-11T10:39:41.106Z,21.43
2024-01-11T10:41:22.520Z,22.17
2024-01-11T10:43:03.958Z,20.41
2024-01-11T10:44:45.398Z,18.97
2024-01-11T10:46:26.845Z,20.59
2024-01-11T10:48:08.446Z,21.23
2024-01-11T10:49:49.911Z,21.96
2024-01-11T10:51:31.874Z,22.27
2024-01-11T10:53:13.311Z,22.25
2024-01-11T10:54:54.717Z,22.29
2024-01-11T10:56:36.163Z,21.04
2024-01-11T10:58:18.147Z,22.32
2024-01-11T10:59:59.521Z,20.53
2024-01-11T11:01:40.911Z,19.99
2024-01-11T11:03:22.386Z,19.42
2024-01-11T11:05:03.889Z,19.07
2024-01-11T11:06:45.393Z,19.46
2024-01-11T11:08:26.982Z,19.50
2024-01-11T11:10:08.326Z,17.10
2024-01-11T11:11:49.757Z,17.25
2024-01-11T11:13:31.206Z,16.26
2024-01-11T11:15:12.657Z,15.70
2024-01-11T11:16:54.322Z,14.98
2024-01-11T11:18:35.810Z,16.00
2024-01-11T11:20:17.434Z,16.37
2024-01-11T11:21:58.858Z,16.52
2024-01-11T11:23:40.342Z,18.00
2024-01-11T11:25:21.786Z,17.19
2024-01-11T11:27:03.152Z,18.01
2024-01-11T11:28:44.541Z,18.96
2024-01-11T11:30:25.985Z,18.25
2024-01-11T11:32:07.350Z,19.54
2024-01-11T11:33:48.872Z,20.60
2024-01-11T11:35:30.409Z,20.23
2024-01-11T11:37:11.919Z,20.74
2024-01-11T11:38:53.341Z,20.38
2024-01-11T11:40:34.786Z,21.24
2024-01-11T11:42:16.163Z,21.50
2024-01-11T11:43:57.624Z,19.46
2024-01-11T11:45:41.644Z,19.06
2024-01-11T11:47:23.082Z,19.19
2024-01-11T11:49:04.858Z,18.51
2024-01-11T11:50:46.496Z,18.00
2024-01-11T11:52:27.908Z,18.65
2024-01-11T11:54:09.358Z,18.10
2024-01-11T11:55:50.699Z,18.37
2024-01-11T11:57:32.175Z,17.81
2024-01-11T11:59:13.608Z,17.96
2024-01-11T12:00:55.131Z,18.76
2024-01-11T12:02:36.578Z,18.57
2024-01-11T12:04:18.049Z,20.22
2024-01-11T12:05:59.668Z,19.48
2024-01-11T12:07:41.060Z,19.78
2024-01-11T12:09:22.454Z,19.11
2024-01-11T12:11:03.930Z,18.59
2024-01-11T12:12:45.574Z,18.87
2024-01-11T12:14:28.457Z,18.88
2024-01-11T12:16:10.034Z,18.97
2024-01-11T12:17:51.492Z,18.66
2024-01-11T12:19:33.149Z,18.18
2024-01-11T12:21:14.625Z,18.39
2024-01-11T12:22:55.999Z,18.21
2024-01-11T12:24:37.330Z,19.00
2024-01-11T12:26:18.953Z,19.04
2024-01-11T12:28:03.318Z,20.01
2024-01-11T12:29:52.767Z,20.04
2024-01-11T12:31:38.159Z,20.11
2024-01-11T12:33:19.681Z,20.70
2024-01-11T12:35:01.261Z,19.48
2024-01-11T12:36:42.834Z,18.38
2024-01-11T12:38:24.223Z,19.69
2024-01-11T12:40:05.663Z,20.97
2024-01-11T12:41:47.080Z,18.69
2024-01-11T12:43:28.545Z,18.31
2024-01-11T12:45:10.031Z,20.04
2024-01-11T12:46:51.460Z,20.66
2024-01-11T12:48:32.993Z,19.95
2024-01-11T12:50:14.652Z,19.67
2024-01-11T12:51:56.097Z,20.36
2024-01-11T12:53:37.515Z,20.04
2024-01-11T12:55:18.912Z,21.56
2024-01-11T12:57:00.511Z,21.55
2024-01-11T12:58:41.912Z,22.86
2024-01-11T13:00:23.389Z,23.24
2024-01-11T13:02:05.044Z,23.95
2024-01-11T13:03:47.144Z,23.83
2024-01-11T13:05:28.909Z,26.67
2024-01-11T13:07:10.415Z,26.06
2024-01-11T13:08:51.857Z,25.73
2024-01-11T13:10:33.314Z,26.01
2024-01-11T13:12:14.782Z,27.23
2024-01-11T13:13:56.139Z,30.81
2024-01-11T13:15:37.570Z,29.16
2024-01-11T13:17:19.031Z,29.03
2024-01-11T13:19:00.493Z,29.55
2024-01-11T13:20:41.971Z,28.80
2024-01-11T13:22:23.821Z,30.85
2024-01-11T13:24:05.170Z,30.32
2024-01-11T13:25:46.769Z,32.95
2024-01-11T13:27:28.785Z,33.42
2024-01-11T13:29:10.275Z,33.38
2024-01-11T13:30:51.693Z,32.48
2024-01-11T13:32:33.143Z,29.97
2024-01-11T13:34:14.522Z,30.16
2024-01-11T13:35:55.950Z,31.64
2024-01-11T13:37:37.405Z,32.46
2024-01-11T13:39:18.734Z,32.62
2024-01-11T13:41:00.087Z,32.37
2024-01-11T13:42:41.445Z,32.60
2024-01-11T13:44:25.106Z,33.35
2024-01-11T13:46:07.143Z,35.01
2024-01-11T13:47:48.634Z,34.02
2024-01-11T13:49:30.057Z,32.63
2024-01-11T13:51:11.603Z,32.44
2024-01-11T13:52:52.999Z,32.00
2024-01-11T13:54:34.426Z,32.33
2024-01-11T13:56:15.825Z,33.05
2024-01-11T13:57:57.245Z,32.21
2024-01-11T13:59:38.664Z,31.81
2024-01-11T14:01:20.670Z,29.47
2024-01-11T14:03:02.836Z,29.36
2024-01-11T14:04:45.148Z,29.54
2024-01-11T14:06:27.745Z,33.02
2024-01-11T14:08:09.252Z,33.67
2024-01-11T14:09:50.628Z,32.72
2024-01-11T14:11:32.024Z,32.85
2024-01-11T14:13:13.511Z,32.49
2024-01-11T14:14:54.963Z,32.92
2024-01-11T14:16:36.330Z,32.92
2024-01-11T14:18:17.884Z,33.83
2024-01-11T14:19:59.484Z,33.22
2024-01-11T14:21:40.876Z,36.05
2024-01-11T14:23:22.329Z,36.35
2024-01-11T14:25:03.805Z,36.35
2024-01-11T14:26:45.268Z,36.89
2024-01-11T14:28:27.458Z,34.73
2024-01-11T14:30:09.073Z,33.44
2024-01-11T14:31:50.434Z,33.19
2024-01-11T14:33:31.934Z,32.72
2024-01-11T14:35:13.770Z,38.15
2024-01-11T14:36:55.340Z,38.15
2024-01-11T14:38:36.824Z,37.58
2024-01-11T14:40:18.310Z,35.82
2024-01-11T14:42:00.234Z,35.47
2024-01-11T14:43:41.823Z,37.45
2024-01-11T14:45:23.215Z,30.67
2024-01-11T14:47:04.547Z,31.14
2024-01-11T14:48:46.099Z,30.79
2024-01-11T14:50:27.659Z,31.43
2024-01-11T14:52:09.008Z,32.18
2024-01-11T14:53:50.357Z,32.59
2024-01-11T14:55:31.778Z,33.21
2024-01-11T14:57:13.144Z,34.54
2024-01-11T14:58:55.190Z,34.28
2024-01-11T15:00:36.888Z,35.50
2024-01-11T15:02:18.312Z,32.87
2024-01-11T15:03:59.705Z,32.63
2024-01-11T15:05:41.237Z,35.18
2024-01-11T15:07:22.728Z,36.46
2024-01-11T15:09:04.096Z,31.89
2024-01-11T15:10:46.533Z,32.96
2024-01-11T15:12:28.029Z,32.22
2024-01-11T15:14:09.989Z,32.13
2024-01-11T15:15:51.586Z,34.28
2024-01-11T15:17:33.259Z,34.40
2024-01-11T15:19:14.887Z,35.24
2024-01-11T15:20:56.373Z,35.63
2024-01-11T15:22:37.758Z,36.00
2024-01-11T15:24:19.109Z,34.81
2024-01-11T15:26:00.485Z,35.04
2024-01-11T15:27:41.891Z,33.69
2024-01-11T15:29:23.385Z,34.53
2024-01-11T15:31:05.116Z,33.89
2024-01-11T15:32:46.976Z,33.90
2024-01-11T15:34:28.441Z,33.85
2024-01-11T15:36:10.142Z,34.07
2024-01-11T15:37:51.485Z,36.52
2024-01-11T15:39:34.971Z,37.06
2024-01-11T15:41:16.631Z,35.61
2024-01-11T15:42:57.996Z,37.50
2024-01-11T15:44:39.380Z,36.03
2024-01-11T15:46:20.905Z,37.06
2024-01-11T15:48:02.377Z,38.49
2024-01-11T15:49:43.929Z,39.23
2024-01-11T15:51:25.424Z,41.40
2024-01-11T15:53:06.829Z,41.14
2024-01-11T15:54:48.244Z,41.27
2024-01-11T15:56:29.676Z,40.11
2024-01-11T15:58:11.076Z,38.76
2024-01-11T15:59:52.500Z,40.41
2024-01-11T16:01:34.018Z,37.26
2024-01-11T16:03:15.636Z,39.93
2024-01-11T16:04:57.039Z,38.83
2024-01-11T16:06:38.480Z,38.27
2024-01-11T16:08:19.900Z,37.00
2024-01-11T16:10:01.289Z,34.87
2024-01-11T16:11:42.969Z,35.14
2024-01-11T16:13:24.559Z,35.25
2024-01-11T16:15:06.127Z,36.71
2024-01-11T16:16:47.646Z,33.44
2024-01-11T16:18:29.178Z,33.60
2024-01-11T16:20:10.703Z,35.02
2024-01-11T16:21:52.072Z,35.31
2024-01-11T16:23:33.473Z,34.74
2024-01-11T16:25:15.588Z,33.85
2024-01-11T16:26:57.231Z,34.56
2024-01-11T16:28:38.608Z,34.37
2024-01-11T16:30:19.975Z,35.58
2024-01-11T16:32:01.405Z,33.02
2024-01-11T16:33:42.771Z,34.17
2024-01-11T16:35:24.446Z,34.51
2024-01-11T16:37:06.454Z,34.43
2024-01-11T16:38:47.914Z,32.21
2024-01-11T16:40:29.662Z,32.28
2024-01-11T16:42:11.332Z,34.54
2024-01-11T16:43:52.781Z,35.03
2024-01-11T16:45:34.165Z,38.63
2024-01-11T16:47:15.773Z,38.26
2024-01-11T16:48:57.279Z,40.13
2024-01-11T16:50:38.742Z,34.72
2024-01-11T16:52:20.200Z,34.93
2024-01-11T16:54:01.546Z,36.35
2024-01-11T16:55:42.896Z,32.83
2024-01-11T16:57:24.916Z,38.78
2024-01-11T16:59:06.585Z,35.35
2024-01-11T17:00:48.087Z,32.89
2024-01-11T17:02:29.664Z,31.07
2024-01-11T17:04:11.438Z,36.89
2024-01-11T17:05:52.969Z,37.56
2024-01-11T17:07:34.380Z,37.42
2024-01-11T17:09:15.715Z,35.69
2024-01-11T17:10:57.094Z,35.88
2024-01-11T17:12:38.483Z,36.26
2024-01-11T17:14:19.910Z,36.50
2024-01-11T17:16:01.396Z,35.01
2024-01-11T17:17:42.877Z,35.11
2024-01-11T17:19:24.237Z,35.03
2024-01-11T17:21:05.611Z,33.18
2024-01-11T17:22:47.031Z,33.71
2024-01-11T17:24:29.662Z,33.71
2024-01-11T17:26:11.060Z,33.94
2024-01-11T17:27:52.433Z,33.71
2024-01-11T17:29:33.854Z,33.45
2024-01-11T17:31:15.249Z,33.97
2024-01-11T17:32:56.756Z,32.96
2024-01-11T17:34:38.380Z,34.12
2024-01-11T17:36:19.878Z,34.60
2024-01-11T17:38:01.222Z,34.28
2024-01-11T17:39:42.560Z,33.38
2024-01-11T17:41:23.933Z,34.07
2024-01-11T17:43:05.356Z,32.96
2024-01-11T17:44:46.789Z,33.52
2024-01-11T17:46:29.238Z,34.25
2024-01-11T17:48:11.084Z,35.68
2024-01-11T17:49:52.619Z,35.00
2024-01-11T17:51:34.022Z,35.58
2024-01-11T17:53:16.034Z,36.49
2024-01-11T17:54:57.737Z,35.43
2024-01-11T17:56:39.128Z,35.22
2024-01-11T17:58:21.537Z,34.46
2024-01-11T18:00:03.680Z,34.68
2024-01-11T18:01:45.517Z,36.06
2024-01-11T18:03:26.864Z,35.26
2024-01-11T18:05:08.782Z,33.41
2024-01-11T18:06:50.919Z,34.57
2024-01-11T18:08:32.578Z,35.22
2024-01-11T18:10:13.932Z,35.22
2024-01-11T18:11:55.381Z,34.91
2024-01-11T18:13:36.755Z,34.92
2024-01-11T18:15:18.102Z,35.77
2024-01-11T18:16:59.457Z,38.17
2024-01-11T18:18:40.867Z,36.45
2024-01-11T18:20:22.410Z,35.74
2024-01-11T18:22:05.181Z,33.29
2024-01-11T18:23:46.697Z,32.88
2024-01-11T18:25:28.209Z,33.90
2024-01-11T18:27:09.665Z,34.81
2024-01-11T18:28:51.566Z,34.79
2024-01-11T18:30:33.246Z,34.52
2024-01-11T18:32:14.811Z,33.97
2024-01-11T18:33:56.275Z,33.99
2024-01-11T18:35:37.812Z,35.14
2024-01-11T18:37:19.220Z,34.85
2024-01-11T18:39:00.662Z,34.83
2024-01-11T18:40:42.061Z,34.78
2024-01-11T18:42:23.403Z,33.88
2024-01-11T18:44:05.639Z,33.34
2024-01-11T18:45:48.817Z,32.81
2024-01-11T18:47:31.761Z,34.91
2024-01-11T18:49:13.302Z,36.85
2024-01-11T18:50:54.768Z,35.13
2024-01-11T18:52:36.129Z,38.06
2024-01-11T18:54:17.486Z,38.98
2024-01-11T18:55:58.922Z,36.38
2024-01-11T18:57:40.820Z,35.12
2024-01-11T18:59:22.495Z,34.53
2024-01-11T19:01:04.125Z,37.23
2024-01-11T19:02:45.912Z,38.10
2024-01-11T19:04:27.392Z,39.14
2024-01-11T19:06:09.175Z,39.64
2024-01-11T19:07:50.802Z,38.04
2024-01-11T19:09:32.258Z,37.20
2024-01-11T19:11:15.274Z,36.96
2024-01-11T19:12:56.985Z,36.46
2024-01-11T19:14:38.378Z,35.62
2024-01-11T19:16:19.828Z,35.51
2024-01-11T19:18:01.369Z,34.72
2024-01-11T19:19:43.023Z,34.56
2024-01-11T19:21:25.085Z,34.10
2024-01-11T19:23:06.727Z,33.50
2024-01-11T19:24:48.221Z,35.21
2024-01-11T19:26:29.608Z,36.77
2024-01-11T19:28:10.994Z,37.89
2024-01-11T19:29:52.703Z,39.17
2024-01-11T19:31:34.145Z,38.00
2024-01-11T19:33:15.775Z,36.71
2024-01-11T19:34:57.470Z,35.24
2024-01-11T19:36:39.496Z,36.91
2024-01-11T19:38:21.072Z,36.86
2024-01-11T19:40:02.470Z,36.68
2024-01-11T19:41:43.850Z,37.11
2024-01-11T19:43:25.524Z,36.70
2024-01-11T19:45:07.058Z,38.54
2024-01-11T19:46:48.424Z,36.81
2024-01-11T19:48:29.930Z,36.59
2024-01-11T19:50:11.676Z,36.47
2024-01-11T19:51:53.165Z,35.67
2024-01-11T19:53:34.709Z,35.22
2024-01-11T19:55:16.239Z,35.05
2024-01-11T19:56:57.626Z,35.09
2024-01-11T19:58:39.021Z,35.10
2024-01-11T20:00:20.407Z,34.84
2024-01-11T20:02:02.447Z,33.26
2024-01-11T20:03:43.972Z,32.61
2024-01-11T20:05:25.367Z,31.73
2024-01-11T20:07:06.768Z,33.62
2024-01-11T20:08:48.221Z,34.17
2024-01-11T20:10:29.566Z,34.71
2024-01-11T20:12:10.946Z,34.53
2024-01-11T20:13:52.314Z,34.12
2024-01-11T20:15:33.679Z,34.42
2024-01-11T20:17:15.125Z,36.27
2024-01-11T20:18:56.573Z,35.25
2024-01-11T20:20:38.040Z,34.67
2024-01-11T20:22:19.414Z,35.98
2024-01-11T20:24:00.947Z,37.90
2024-01-11T20:25:42.318Z,39.06
2024-01-11T20:27:23.666Z,41.86
2024-01-11T20:29:05.043Z,41.19
2024-01-11T20:30:46.554Z,40.07
2024-01-11T20:32:28.748Z,36.14
2024-01-11T20:34:10.708Z,37.93
2024-01-11T20:35:52.187Z,38.03
2024-01-11T20:37:33.654Z,35.99
2024-01-11T20:39:15.378Z,38.11
2024-01-11T20:40:57.063Z,38.06
2024-01-11T20:42:38.522Z,38.19
2024-01-11T20:44:19.921Z,39.45
2024-01-11T20:46:01.575Z,38.91
2024-01-11T20:47:43.140Z,39.16
2024-01-11T20:49:24.565Z,37.82
2024-01-11T20:51:05.997Z,38.03
2024-01-11T20:52:47.374Z,38.56
2024-01-11T20:54:28.960Z,36.66
2024-01-11T20:56:10.683Z,35.00
2024-01-11T20:57:52.172Z,37.15
2024-01-11T20:59:33.579Z,36.59
2024-01-11T21:01:15.056Z,36.69
2024-01-11T21:02:56.517Z,36.98
2024-01-11T21:04:37.883Z,35.98
2024-01-11T21:06:20.017Z,36.37
2024-01-11T21:08:03.811Z,36.08
2024-01-11T21:09:46.325Z,34.54
2024-01-11T21:11:27.823Z,33.69
2024-01-11T21:13:09.810Z,34.10
2024-01-11T21:14:51.958Z,34.18
2024-01-11T21:16:33.607Z,34.83
2024-01-11T21:18:15.363Z,35.12
2024-01-11T21:19:57.095Z,38.04
2024-01-11T21:21:38.468Z,37.80
2024-01-11T21:23:19.838Z,36.65
2024-01-11T21:25:01.923Z,39.38
2024-01-11T21:26:43.563Z,38.14
2024-01-11T21:28:25.161Z,35.08
2024-01-11T21:30:06.810Z,34.52
2024-01-11T21:31:48.215Z,33.92
2024-01-11T21:33:29.737Z,33.26
2024-01-11T21:35:11.587Z,37.16
2024-01-11T21:36:53.174Z,38.55
2024-01-11T21:38:34.778Z,38.34
2024-01-11T21:40:16.475Z,39.45
2024-01-11T21:41:57.919Z,36.94
2024-01-11T21:43:39.279Z,36.56
2024-01-11T21:45:20.666Z,36.90
2024-01-11T21:47:02.003Z,35.86
2024-01-11T21:48:43.503Z,36.69